Time;durP1;ratioP1;P1;durP2;ratioP2;P2;SDS_P1;SDS_P2;PMS_P1;PMS_P2;Temp;Humidity;BMP_temperature;BMP_pressure;BME280_temperature;BME280_humidity;BME280_pressure;Samples;Min_cycle;Max_cycle;Signal;HPM_P1;HPM_P2
2023/01/04 00:00:41;;;;;;;12.30;8.13;;;5.40;99.90;;;;;;2565087;23;20000;-77
2023/01/04 00:01:42;;;;;;;11.10;7.55;;;5.30;99.90;;;;;;2561954;23;20007;-77
2023/01/04 00:02:42;;;;;;;13.63;8.48;;;5.30;99.90;;;;;;2562215;23;20305;-76
2023/01/04 00:03:43;;;;;;;12.55;7.93;;;5.40;99.90;;;;;;2562942;23;20011;-77
2023/01/04 00:04:44;;;;;;;10.80;6.55;;;5.40;99.90;;;;;;2564857;23;20111;-76
2023/01/04 00:05:44;;;;;;;10.05;6.55;;;5.40;99.90;;;;;;2562563;23;20037;-77
2023/01/04 00:06:45;;;;;;;8.50;6.53;;;5.40;99.90;;;;;;2562691;23;20289;-77
2023/01/04 00:07:45;;;;;;;8.73;6.15;;;5.40;99.90;;;;;;2562675;23;20009;-77
2023/01/04 00:08:46;;;;;;;7.60;5.53;;;5.40;99.90;;;;;;2562652;23;20344;-77
2023/01/04 00:09:47;;;;;;;7.32;5.43;;;5.30;99.90;;;;;;2562647;23;20015;-76
2023/01/04 00:10:47;;;;;;;6.38;4.95;;;5.30;99.90;;;;;;2564620;23;20636;-77
2023/01/04 00:11:48;;;;;;;9.15;5.50;;;5.30;99.90;;;;;;2562471;23;20000;-76
2023/01/04 00:12:48;;;;;;;6.68;5.28;;;5.30;99.90;;;;;;2562570;23;20418;-76
2023/01/04 00:13:51;;;;;;;8.25;5.63;;;5.20;99.90;;;;;;2562621;23;20349;-76
2023/01/04 00:14:52;;;;;;;6.70;5.30;;;5.20;99.90;;;;;;2564924;23;20082;-76
2023/01/04 00:15:53;;;;;;;8.10;5.55;;;5.20;99.90;;;;;;2562475;23;20509;-76
2023/01/04 00:16:53;;;;;;;6.35;5.15;;;5.20;99.90;;;;;;2562442;23;20007;-76
2023/01/04 00:17:54;;;;;;;6.20;4.97;;;5.20;99.90;;;;;;2562306;23;20042;-76
2023/01/04 00:18:55;;;;;;;8.05;5.78;;;5.20;99.90;;;;;;2562614;23;20109;-76
2023/01/04 00:19:56;;;;;;;8.60;5.95;;;5.10;99.90;;;;;;2562438;23;20394;-76
2023/01/04 00:21:06;;;;;;;9.05;7.15;;;5.10;99.90;;;;;;2564899;23;20051;-76
2023/01/04 00:22:07;;;;;;;13.27;8.45;;;5.00;99.90;;;;;;2564960;23;20346;-75
2023/01/04 00:23:07;;;;;;;11.00;8.65;;;5.00;99.90;;;;;;2562735;23;20574;-76
2023/01/04 00:24:09;;;;;;;13.73;9.82;;;5.00;99.90;;;;;;2562533;23;20070;-75
2023/01/04 00:25:09;;;;;;;14.77;10.35;;;5.00;99.90;;;;;;2562783;23;20012;-76
2023/01/04 00:26:12;;;;;;;15.85;10.70;;;5.00;99.90;;;;;;2564890;23;20016;-77
2023/01/04 00:27:13;;;;;;;15.13;10.63;;;4.90;99.90;;;;;;2562458;23;20305;-78
2023/01/04 00:28:15;;;;;;;14.60;10.00;;;4.90;99.90;;;;;;2549471;23;20009;-77
2023/01/04 00:29:15;;;;;;;14.70;10.18;;;4.90;99.90;;;;;;2549667;23;20096;-76
2023/01/04 00:30:16;;;;;;;12.95;9.60;;;4.90;99.90;;;;;;2551496;23;20012;-76
2023/01/04 00:31:16;;;;;;;15.00;10.13;;;4.90;99.90;;;;;;2549256;23;20091;-76
2023/01/04 00:32:17;;;;;;;14.00;9.65;;;4.90;99.90;;;;;;2549130;23;20422;-77
2023/01/04 00:33:18;;;;;;;12.93;10.05;;;4.90;99.90;;;;;;2537319;23;20580;-78
2023/01/04 00:34:18;;;;;;;13.20;9.80;;;4.90;99.90;;;;;;2551868;23;20478;-77
2023/01/04 00:35:19;;;;;;;12.88;9.52;;;4.90;99.90;;;;;;2563139;23;20040;-77
2023/01/04 00:36:20;;;;;;;12.25;9.23;;;4.90;99.90;;;;;;2562746;23;20004;-77
2023/01/04 00:37:20;;;;;;;11.50;8.68;;;4.90;99.90;;;;;;2549576;23;20052;-77
2023/01/04 00:38:21;;;;;;;11.43;8.10;;;4.90;99.90;;;;;;2550052;23;20361;-77
2023/01/04 00:39:21;;;;;;;10.18;7.53;;;5.00;99.90;;;;;;2563473;23;20019;-76
2023/01/04 00:40:22;;;;;;;8.82;6.78;;;5.00;99.90;;;;;;2565580;23;20039;-75
2023/01/04 00:41:22;;;;;;;9.30;6.78;;;5.00;99.90;;;;;;2562354;23;20048;-76
2023/01/04 00:42:23;;;;;;;8.85;6.70;;;5.10;99.90;;;;;;2562083;23;20000;-75
2023/01/04 00:43:24;;;;;;;9.00;6.25;;;5.10;99.90;;;;;;2551095;23;20005;-75
2023/01/04 00:44:24;;;;;;;9.63;6.35;;;5.10;99.90;;;;;;2548842;23;20005;-75
2023/01/04 00:45:25;;;;;;;8.60;5.97;;;5.20;99.90;;;;;;2549826;23;20154;-75
2023/01/04 00:46:26;;;;;;;8.88;5.70;;;5.20;99.90;;;;;;2562658;23;20103;-77
2023/01/04 00:47:26;;;;;;;7.88;5.40;;;5.30;99.90;;;;;;2562915;23;20433;-77
2023/01/04 00:48:27;;;;;;;7.15;5.50;;;5.30;99.90;;;;;;2564654;23;20058;-78
2023/01/04 00:49:29;;;;;;;7.88;5.65;;;5.30;99.90;;;;;;2561469;23;20164;-77
2023/01/04 00:50:29;;;;;;;8.85;6.07;;;5.30;99.90;;;;;;2548989;23;20072;-75
2023/01/04 00:51:32;;;;;;;7.20;5.68;;;5.40;99.90;;;;;;2549249;23;19997;-75
2023/01/04 00:52:32;;;;;;;8.48;5.90;;;5.30;99.90;;;;;;2564532;23;20050;-77
2023/01/04 00:53:33;;;;;;;7.22;5.57;;;5.30;99.90;;;;;;2549199;23;20116;-77
2023/01/04 00:54:34;;;;;;;8.20;6.18;;;5.30;99.90;;;;;;2549395;23;20463;-78
2023/01/04 00:55:34;;;;;;;9.23;6.85;;;5.30;99.90;;;;;;2562384;23;20070;-77
2023/01/04 00:56:35;;;;;;;9.82;6.88;;;5.20;99.90;;;;;;2549193;23;20024;-77
2023/01/04 00:57:35;;;;;;;11.10;7.72;;;5.20;99.90;;;;;;2549504;23;20358;-76
2023/01/04 00:58:36;;;;;;;11.57;8.20;;;5.20;99.90;;;;;;2564634;23;19997;-77
2023/01/04 00:59:36;;;;;;;13.82;8.15;;;5.10;99.90;;;;;;2562743;23;20244;-77
2023/01/04 01:00:37;;;;;;;11.30;8.02;;;5.10;99.90;;;;;;2549579;23;20264;-77
2023/01/04 01:01:38;;;;;;;11.20;7.65;;;5.00;99.90;;;;;;2549568;23;20028;-75
2023/01/04 01:02:39;;;;;;;9.88;7.32;;;5.00;99.90;;;;;;2564940;23;20028;-76
2023/01/04 01:03:40;;;;;;;8.73;6.63;;;4.90;99.90;;;;;;2549594;23;20012;-76
2023/01/04 01:04:40;;;;;;;9.02;6.70;;;4.90;99.90;;;;;;2549385;23;20005;-76
2023/01/04 01:05:41;;;;;;;8.32;6.05;;;4.90;99.90;;;;;;2562632;23;20086;-78
2023/01/04 01:06:41;;;;;;;7.57;5.78;;;4.90;99.90;;;;;;2549379;23;20058;-75
2023/01/04 01:07:42;;;;;;;9.00;5.65;;;4.80;99.90;;;;;;2551819;23;20000;-78
2023/01/04 01:08:42;;;;;;;6.65;5.50;;;4.80;99.90;;;;;;2549693;23;20008;-76
2023/01/04 01:09:43;;;;;;;8.52;5.90;;;4.80;99.90;;;;;;2549532;23;20006;-79
2023/01/04 01:10:43;;;;;;;7.70;5.90;;;4.70;99.90;;;;;;2551835;23;20445;-77
2023/01/04 01:11:44;;;;;;;7.38;6.03;;;4.70;99.90;;;;;;2562793;23;20005;-77
2023/01/04 01:12:44;;;;;;;8.10;6.07;;;4.70;99.90;;;;;;2562827;23;20438;-76
2023/01/04 01:13:45;;;;;;;7.05;6.00;;;4.60;99.90;;;;;;2562804;23;20398;-77
2023/01/04 01:14:46;;;;;;;7.43;5.97;;;4.60;99.90;;;;;;2562988;23;20039;-77
2023/01/04 01:15:47;;;;;;;7.85;6.47;;;4.60;99.90;;;;;;2562596;23;20016;-76
2023/01/04 01:16:48;;;;;;;9.15;6.53;;;4.60;99.90;;;;;;2551476;23;20453;-78
2023/01/04 01:17:48;;;;;;;10.65;7.15;;;4.60;99.90;;;;;;2537038;23;20009;-77
2023/01/04 01:18:49;;;;;;;8.98;6.68;;;4.60;99.90;;;;;;2549446;23;20450;-76
2023/01/04 01:19:50;;;;;;;10.25;6.72;;;4.50;99.90;;;;;;2562531;23;20481;-77
2023/01/04 01:20:50;;;;;;;10.55;6.55;;;4.50;99.90;;;;;;2561884;23;20044;-75
2023/01/04 01:21:51;;;;;;;10.88;6.40;;;4.50;99.90;;;;;;2562518;23;20569;-74
2023/01/04 01:22:51;;;;;;;8.02;6.05;;;4.50;99.90;;;;;;2551269;23;20005;-77
2023/01/04 01:23:54;;;;;;;8.07;5.90;;;4.50;99.90;;;;;;2549450;23;20009;-76
2023/01/04 01:24:55;;;;;;;7.88;5.90;;;4.50;99.90;;;;;;2563211;23;20434;-77
2023/01/04 01:26:00;;;;;;;8.52;5.70;;;4.50;99.90;;;;;;2564465;23;20100;-77
2023/01/04 01:27:01;;;;;;;7.15;5.28;;;4.50;99.90;;;;;;2565072;23;20108;-74
2023/01/04 01:28:02;;;;;;;7.88;5.47;;;4.50;99.90;;;;;;2562923;23;20337;-75
2023/01/04 01:29:02;;;;;;;7.63;5.13;;;4.50;99.90;;;;;;2563019;23;20025;-77
2023/01/04 01:30:04;;;;;;;7.95;5.28;;;4.50;99.90;;;;;;2562963;23;20185;-76
2023/01/04 01:31:06;;;;;;;6.72;4.63;;;4.50;99.90;;;;;;2563015;23;20323;-75
2023/01/04 01:32:07;;;;;;;6.05;4.70;;;4.40;99.90;;;;;;2549921;23;20025;-75
2023/01/04 01:33:09;;;;;;;6.95;5.20;;;4.40;99.90;;;;;;2552724;23;20374;-75
2023/01/04 01:34:09;;;;;;;7.10;5.00;;;4.40;99.90;;;;;;2564704;23;20025;-75
2023/01/04 01:35:10;;;;;;;6.88;4.72;;;4.40;99.90;;;;;;2564178;23;20538;-76
2023/01/04 01:36:12;;;;;;;7.18;4.90;;;4.40;99.90;;;;;;2552214;23;20068;-74
2023/01/04 01:37:13;;;;;;;8.77;5.07;;;4.40;99.90;;;;;;2552603;23;20037;-73
2023/01/04 01:38:13;;;;;;;8.43;5.70;;;4.40;99.90;;;;;;2563182;23;20005;-74
2023/01/04 01:39:14;;;;;;;7.80;5.13;;;4.40;99.90;;;;;;2568111;23;20000;-78
2023/01/04 01:40:15;;;;;;;7.15;5.03;;;4.30;99.90;;;;;;2553149;23;20036;-75
2023/01/04 01:41:27;;;;;;;7.38;5.28;;;4.40;99.90;;;;;;2551179;23;20017;-75
2023/01/04 01:42:28;;;;;;;5.82;4.80;;;4.30;99.90;;;;;;2562270;23;20297;-75
2023/01/04 01:43:50;;;;;;;8.02;5.20;;;4.30;99.90;;;;;;2549781;23;20001;-76
2023/01/04 01:44:59;;;;;;;7.57;5.03;;;4.30;99.90;;;;;;2548608;23;20005;-77
2023/01/04 01:46:00;;;;;;;7.30;4.95;;;4.30;99.90;;;;;;2564902;23;20068;-74
2023/01/04 01:47:01;;;;;;;5.78;4.57;;;4.30;99.90;;;;;;2552877;23;20406;-75
2023/01/04 01:48:10;;;;;;;7.93;4.88;;;4.30;99.90;;;;;;2552983;23;20405;-75
2023/01/04 01:49:29;;;;;;;7.75;5.00;;;4.30;99.90;;;;;;2565729;23;20055;-77
2023/01/04 01:50:39;;;;;;;8.05;5.10;;;4.30;99.90;;;;;;2552131;23;19997;-74
2023/01/04 01:51:41;;;;;;;7.55;4.88;;;4.20;99.90;;;;;;2554516;23;20071;-76
2023/01/04 01:52:42;;;;;;;6.97;4.88;;;4.30;99.90;;;;;;2565021;23;20448;-77
2023/01/04 01:53:46;;;;;;;7.25;4.90;;;4.30;99.90;;;;;;2562628;23;20015;-71
2023/01/04 01:54:55;;;;;;;6.20;4.35;;;4.20;99.90;;;;;;2551616;23;20012;-71
2023/01/04 01:55:57;;;;;;;7.60;4.80;;;4.20;99.90;;;;;;2553302;23;20435;-71
2023/01/04 01:57:00;;;;;;;6.28;4.57;;;4.20;99.90;;;;;;2562586;23;20016;-71
2023/01/04 01:58:04;;;;;;;8.60;5.20;;;4.20;99.90;;;;;;2562566;23;20011;-72
2023/01/04 01:59:05;;;;;;;6.57;4.78;;;4.20;99.90;;;;;;2563171;23;20156;-72
2023/01/04 02:00:11;;;;;;;5.53;4.18;;;4.20;99.90;;;;;;2549825;23;20009;-72
2023/01/04 02:01:15;;;;;;;5.85;4.45;;;4.20;99.90;;;;;;2551960;23;20167;-70
2023/01/04 02:02:16;;;;;;;6.03;4.60;;;4.20;99.90;;;;;;2563117;23;20004;-73
2023/01/04 02:03:19;;;;;;;7.10;4.40;;;4.20;99.90;;;;;;2563741;23;20004;-75
2023/01/04 02:04:20;;;;;;;6.25;4.43;;;4.20;99.90;;;;;;2565222;23;20009;-73
2023/01/04 02:05:21;;;;;;;7.03;4.60;;;4.20;99.90;;;;;;2563325;23;20000;-74
2023/01/04 02:06:28;;;;;;;5.88;4.50;;;4.20;99.90;;;;;;2563510;23;20016;-72
2023/01/04 02:07:29;;;;;;;6.80;4.90;;;4.20;99.90;;;;;;2549950;23;20005;-72
2023/01/04 02:08:29;;;;;;;7.50;4.80;;;4.20;99.90;;;;;;2550174;23;20560;-74
2023/01/04 02:09:31;;;;;;;6.40;4.20;;;4.20;99.90;;;;;;2565650;23;20059;-73
2023/01/04 02:10:32;;;;;;;7.00;4.70;;;4.10;99.90;;;;;;2563350;23;20007;-73
2023/01/04 02:11:32;;;;;;;7.43;4.40;;;4.10;99.90;;;;;;2564049;23;20546;-71
2023/01/04 02:12:33;;;;;;;5.85;4.45;;;4.10;99.90;;;;;;2549948;23;19997;-75
2023/01/04 02:14:55;;;;;;;6.32;4.60;;;4.10;99.90;;;;;;2550175;23;20080;-72
2023/01/04 02:16:17;;;;;;;7.43;4.88;;;4.20;99.90;;;;;;2552427;23;20212;-74
2023/01/04 02:17:43;;;;;;;6.47;4.50;;;4.20;99.90;;;;;;2563627;23;20013;-73
2023/01/04 02:19:00;;;;;;;7.43;5.10;;;4.20;99.90;;;;;;2563009;23;20009;-71
2023/01/04 02:20:13;;;;;;;8.38;5.00;;;4.20;99.90;;;;;;2563021;23;20015;-71
2023/01/04 02:21:40;;;;;;;6.20;4.70;;;4.20;99.90;;;;;;2562889;23;20015;-72
2023/01/04 02:23:10;;;;;;;7.25;5.00;;;4.20;99.90;;;;;;2537703;23;20128;-73
2023/01/04 02:24:30;;;;;;;6.55;4.82;;;4.20;99.90;;;;;;2556387;23;20008;-73
2023/01/04 02:25:58;;;;;;;6.40;4.70;;;4.20;99.90;;;;;;2565123;23;20011;-73
2023/01/04 02:27:12;;;;;;;7.45;4.72;;;4.20;99.90;;;;;;2562919;23;20005;-71
2023/01/04 02:28:35;;;;;;;7.03;4.80;;;4.10;99.90;;;;;;2562993;23;20272;-72
2023/01/04 02:30:00;;;;;;;6.75;4.57;;;4.10;99.90;;;;;;2563255;23;20171;-74
2023/01/04 02:31:28;;;;;;;8.32;4.90;;;4.10;99.90;;;;;;2565150;23;20461;-72
2023/01/04 02:32:50;;;;;;;8.18;4.75;;;4.10;99.90;;;;;;2562802;23;20012;-73
2023/01/04 02:34:33;;;;;;;6.57;4.72;;;4.10;99.90;;;;;;2551931;23;20013;-73
2023/01/04 02:36:01;;;;;;;6.78;4.57;;;4.00;99.90;;;;;;2509102;23;20607;-72
2023/01/04 02:37:22;;;;;;;5.78;4.10;;;4.00;99.90;;;;;;2563297;23;20009;-72
2023/01/04 02:38:27;;;;;;;7.47;4.78;;;4.00;99.90;;;;;;2563230;23;20012;-73
2023/01/04 02:39:52;;;;;;;6.85;4.68;;;4.00;99.90;;;;;;2563113;23;20240;-73
2023/01/04 02:41:07;;;;;;;6.43;4.53;;;4.00;99.90;;;;;;2565040;23;20012;-73
2023/01/04 02:44:51;;;;;;;7.85;5.10;;;3.90;99.90;;;;;;2551874;23;20009;-73
2023/01/04 02:45:37;;;;;;;8.80;5.03;;;3.90;99.90;;;;;;2560668;23;20004;-72
2023/01/04 02:46:44;;;;;;;6.57;4.95;;;3.90;99.90;;;;;;2562987;23;20008;-73
2023/01/04 02:50:32;;;;;;;7.28;4.70;;;3.90;99.90;;;;;;2565249;23;20246;-72
2023/01/04 02:51:35;;;;;;;7.90;4.65;;;3.90;99.90;;;;;;2551571;23;20005;-72
2023/01/04 02:52:36;;;;;;;6.75;4.60;;;3.90;99.90;;;;;;2550304;23;20088;-72
2023/01/04 02:53:39;;;;;;;5.13;4.18;;;3.90;99.90;;;;;;2562989;23;20031;-72
2023/01/04 02:54:40;;;;;;;7.15;4.63;;;3.90;99.90;;;;;;2562879;23;20023;-71
2023/01/04 02:55:59;;;;;;;7.72;5.43;;;3.90;99.90;;;;;;2564920;23;20086;-72
2023/01/04 02:57:37;;;;;;;8.25;5.28;;;3.90;99.90;;;;;;2549684;23;20393;-72
2023/01/04 02:59:02;;;;;;;7.80;4.90;;;3.90;99.90;;;;;;2557775;23;20011;-70
2023/01/04 03:00:12;;;;;;;7.78;5.30;;;3.90;99.90;;;;;;2512168;23;20011;-71
2023/01/04 03:06:14;;;;;;;8.68;5.40;;;3.80;99.90;;;;;;2562868;23;20493;-71
2023/01/04 03:07:26;;;;;;;7.95;4.95;;;3.90;99.90;;;;;;2549598;23;20063;-72
2023/01/04 03:08:36;;;;;;;7.32;4.70;;;3.80;99.90;;;;;;2549277;23;20005;-71
2023/01/04 03:09:41;;;;;;;7.55;4.80;;;3.80;99.90;;;;;;2551861;23;20001;-72
2023/01/04 03:11:05;;;;;;;7.38;4.95;;;3.80;99.90;;;;;;2562396;23;20001;-72
2023/01/04 03:12:30;;;;;;;9.05;5.18;;;3.80;99.90;;;;;;2562705;23;20039;-72
2023/01/04 03:13:38;;;;;;;8.38;5.20;;;3.80;99.90;;;;;;2564982;23;20000;-72
2023/01/04 03:14:52;;;;;;;7.28;4.90;;;3.80;99.90;;;;;;2562730;23;20433;-72
2023/01/04 03:15:58;;;;;;;8.35;5.00;;;3.80;99.90;;;;;;2564789;23;20016;-72
2023/01/04 03:17:04;;;;;;;7.93;5.25;;;3.80;99.90;;;;;;2562854;23;20353;-72
2023/01/04 03:18:12;;;;;;;6.55;4.88;;;3.80;99.90;;;;;;2549577;23;20498;-72
2023/01/04 03:19:50;;;;;;;8.15;5.00;;;3.70;99.90;;;;;;2551369;23;20009;-72
2023/01/04 03:20:36;;;;;;;8.35;5.55;;;3.70;99.90;;;;;;2551529;23;20005;-72
2023/01/04 03:21:43;;;;;;;9.13;5.68;;;3.70;99.90;;;;;;2549888;23;20060;-72
2023/01/04 03:35:39;;;;;;;9.32;5.88;;;3.80;99.90;;;;;;2562748;23;20410;-74
2023/01/04 03:36:46;;;;;;;8.63;5.60;;;3.80;99.90;;;;;;2562558;23;20019;-73
2023/01/04 03:48:52;;;;;;;12.63;6.75;;;3.90;99.90;;;;;;2555499;23;20134;-72
2023/01/04 03:50:06;;;;;;;10.38;7.40;;;3.90;99.90;;;;;;2561718;23;20055;-72
2023/01/04 03:51:17;;;;;;;9.77;7.30;;;3.90;99.90;;;;;;2561734;23;20009;-73
2023/01/04 03:52:19;;;;;;;11.38;7.72;;;3.90;99.90;;;;;;2562553;23;20023;-72
2023/01/04 03:53:20;;;;;;;10.70;7.60;;;3.90;99.90;;;;;;2562799;23;20278;-72
2023/01/04 03:54:36;;;;;;;11.35;8.05;;;4.00;99.90;;;;;;2564727;23;20005;-73
2023/01/04 03:55:39;;;;;;;12.70;8.30;;;4.00;99.90;;;;;;2550502;23;20477;-72
2023/01/04 03:56:42;;;;;;;12.00;8.40;;;4.00;99.90;;;;;;2551891;23;20008;-72
2023/01/04 03:57:44;;;;;;;12.10;7.75;;;3.90;99.90;;;;;;2562689;23;20013;-71
2023/01/04 03:58:45;;;;;;;11.88;8.35;;;4.00;99.90;;;;;;2562555;23;20439;-72
2023/01/04 03:59:54;;;;;;;14.70;8.50;;;4.00;99.90;;;;;;2562657;23;20035;-72
2023/01/04 04:01:02;;;;;;;13.98;9.18;;;4.00;99.90;;;;;;2561523;23;20337;-73
2023/01/04 04:02:03;;;;;;;13.13;8.57;;;4.00;99.90;;;;;;2562507;23;20728;-73
2023/01/04 04:03:08;;;;;;;12.18;8.55;;;4.00;99.90;;;;;;2562597;23;20036;-72
2023/01/04 04:08:29;;;;;;;13.52;9.85;;;4.00;99.90;;;;;;2562673;23;20484;-73
2023/01/04 04:09:29;;;;;;;12.32;9.55;;;4.00;99.90;;;;;;2562289;23;20453;-74
2023/01/04 04:10:30;;;;;;;15.15;10.68;;;4.00;99.90;;;;;;2562451;23;20008;-72
2023/01/04 04:11:30;;;;;;;16.58;11.30;;;4.10;99.90;;;;;;2562510;23;19989;-72
2023/01/04 04:12:31;;;;;;;16.70;11.30;;;4.10;99.90;;;;;;2564487;23;20107;-73
2023/01/04 04:13:32;;;;;;;15.20;10.93;;;4.20;99.90;;;;;;2549160;23;20407;-73
2023/01/04 04:14:32;;;;;;;16.52;11.27;;;4.20;99.90;;;;;;2549230;23;20399;-72
2023/01/04 04:15:35;;;;;;;17.55;11.20;;;4.10;99.90;;;;;;2549104;23;20354;-74
2023/01/04 04:16:36;;;;;;;17.17;11.90;;;4.20;99.90;;;;;;2549728;23;20232;-73
2023/01/04 04:17:36;;;;;;;15.93;12.23;;;4.10;99.90;;;;;;2564859;23;20059;-72
2023/01/04 04:18:37;;;;;;;17.77;12.00;;;4.20;99.90;;;;;;2562285;23;20051;-72
2023/01/04 04:19:37;;;;;;;16.88;12.15;;;4.20;99.90;;;;;;2562177;23;20479;-73
2023/01/04 04:20:38;;;;;;;19.83;12.38;;;4.20;99.90;;;;;;2562559;23;20007;-73
2023/01/04 04:21:39;;;;;;;18.20;11.85;;;4.20;99.90;;;;;;2562621;23;20062;-73
2023/01/04 04:22:40;;;;;;;17.02;11.80;;;4.20;99.90;;;;;;2564663;23;20012;-74
2023/01/04 04:23:40;;;;;;;16.70;11.90;;;4.20;99.90;;;;;;2562729;23;20433;-74
2023/01/04 04:24:41;;;;;;;18.75;12.70;;;4.20;99.90;;;;;;2562805;23;20312;-73
2023/01/04 04:25:41;;;;;;;15.73;11.82;;;4.20;99.90;;;;;;2564828;23;20433;-72
2023/01/04 04:26:42;;;;;;;18.15;12.02;;;4.20;99.90;;;;;;2562951;23;20050;-71
2023/01/04 04:27:42;;;;;;;18.83;12.80;;;4.10;99.90;;;;;;2562394;23;20039;-72
2023/01/04 04:28:43;;;;;;;18.77;13.38;;;4.10;99.90;;;;;;2562766;23;20008;-72
2023/01/04 04:29:44;;;;;;;19.10;13.32;;;4.10;99.90;;;;;;2564675;23;20091;-72
2023/01/04 04:30:47;;;;;;;18.48;12.88;;;4.10;99.90;;;;;;2562509;23;20012;-73
2023/01/04 04:31:48;;;;;;;19.77;13.65;;;4.10;99.90;;;;;;2562456;23;20516;-72
2023/01/04 04:32:49;;;;;;;17.58;13.52;;;4.10;99.90;;;;;;2549271;23;20037;-74
2023/01/04 04:33:49;;;;;;;17.95;13.70;;;4.10;99.90;;;;;;2549150;23;20072;-72
2023/01/04 04:34:50;;;;;;;20.23;14.25;;;4.10;99.90;;;;;;2562442;23;20465;-72
2023/01/04 04:35:52;;;;;;;19.45;13.85;;;4.10;99.90;;;;;;2564543;23;20004;-72
2023/01/04 04:36:53;;;;;;;19.88;12.90;;;4.10;99.90;;;;;;2562287;23;20537;-72
2023/01/04 04:37:53;;;;;;;18.17;13.32;;;4.00;99.90;;;;;;2562444;23;20392;-72
2023/01/04 04:38:54;;;;;;;18.35;13.52;;;4.00;99.90;;;;;;2549126;23;20009;-71
2023/01/04 04:39:54;;;;;;;27.20;15.05;;;4.00;99.90;;;;;;2551247;23;20032;-71
2023/01/04 04:42:14;;;;;;;20.65;14.50;;;4.00;99.90;;;;;;2562289;23;20032;-72
2023/01/04 04:43:15;;;;;;;19.95;14.05;;;4.00;99.90;;;;;;2551525;23;20009;-72
2023/01/04 04:44:17;;;;;;;20.92;13.50;;;4.00;99.90;;;;;;2548919;23;20056;-72
2023/01/04 04:45:18;;;;;;;18.52;13.32;;;4.00;99.90;;;;;;2559800;23;20001;-72
2023/01/04 04:46:19;;;;;;;22.48;15.27;;;3.90;99.90;;;;;;2562352;23;20523;-73
2023/01/04 04:47:19;;;;;;;20.75;14.10;;;4.00;99.90;;;;;;2564776;23;20042;-73
2023/01/04 04:48:20;;;;;;;18.02;13.45;;;3.90;99.90;;;;;;2562487;23;20087;-72
2023/01/04 04:49:20;;;;;;;17.35;13.18;;;3.90;99.90;;;;;;2562288;23;20434;-73
2023/01/04 04:50:21;;;;;;;20.23;13.80;;;3.90;99.90;;;;;;2562417;23;20064;-73
2023/01/04 04:51:22;;;;;;;18.42;13.40;;;3.90;99.90;;;;;;2549216;23;20033;-72
2023/01/04 04:52:22;;;;;;;21.08;15.45;;;3.90;99.90;;;;;;2551123;23;20084;-71
2023/01/04 04:53:23;;;;;;;21.67;15.13;;;3.90;99.90;;;;;;2562468;23;20067;-71
2023/01/04 04:54:23;;;;;;;20.65;14.80;;;3.90;99.90;;;;;;2562386;23;20442;-71
2023/01/04 04:55:24;;;;;;;21.08;14.40;;;3.90;99.90;;;;;;2564467;23;20004;-73
2023/01/04 04:56:25;;;;;;;18.58;14.18;;;3.90;99.90;;;;;;2564509;23;20026;-73
2023/01/04 04:57:26;;;;;;;21.48;14.75;;;4.00;99.90;;;;;;2562210;23;20076;-72
2023/01/04 04:58:26;;;;;;;24.00;15.05;;;4.00;99.90;;;;;;2562340;23;20007;-73
2023/01/04 04:59:27;;;;;;;20.45;14.45;;;4.00;99.90;;;;;;2549025;23;20004;-71
2023/01/04 05:00:27;;;;;;;19.13;14.00;;;4.00;99.90;;;;;;2548914;23;19997;-72
2023/01/04 05:01:29;;;;;;;18.05;13.52;;;4.00;99.90;;;;;;2564521;23;20090;-73
2023/01/04 05:02:29;;;;;;;21.00;15.07;;;4.00;99.90;;;;;;2562393;23;20413;-72
2023/01/04 05:03:30;;;;;;;22.98;15.15;;;4.00;99.90;;;;;;2562407;23;20007;-72
2023/01/04 05:04:31;;;;;;;20.92;14.80;;;4.00;99.90;;;;;;2562239;23;20250;-72
2023/01/04 05:05:31;;;;;;;19.52;14.52;;;4.00;99.90;;;;;;2548960;23;20020;-72
2023/01/04 05:06:32;;;;;;;18.63;13.60;;;4.00;99.90;;;;;;2551399;23;20001;-71
2023/01/04 05:07:32;;;;;;;19.35;13.68;;;4.00;99.90;;;;;;2562470;23;20000;-72
2023/01/04 05:08:33;;;;;;;19.55;14.15;;;4.00;99.90;;;;;;2562489;23;20005;-71
2023/01/04 05:09:33;;;;;;;22.50;14.85;;;4.00;99.90;;;;;;2549020;23;20005;-71
2023/01/04 05:10:34;;;;;;;20.55;13.55;;;4.00;99.90;;;;;;2551350;23;20001;-72
2023/01/04 05:13:07;;;;;;;22.50;14.77;;;4.00;99.90;;;;;;2548369;23;20001;-72
2023/01/04 05:14:09;;;;;;;19.85;14.05;;;4.00;99.90;;;;;;2548491;23;20299;-72
2023/01/04 05:15:10;;;;;;;22.83;15.20;;;4.10;99.90;;;;;;2563574;23;20442;-72
2023/01/04 05:16:10;;;;;;;21.08;14.70;;;4.00;99.90;;;;;;2549084;23;20016;-73
2023/01/04 05:17:11;;;;;;;22.23;14.82;;;4.10;99.90;;;;;;2549114;23;20080;-72
2023/01/04 05:18:13;;;;;;;24.13;16.17;;;4.10;99.90;;;;;;2562163;23;20449;-72
2023/01/04 05:19:13;;;;;;;21.35;15.32;;;4.10;99.90;;;;;;2549313;23;20009;-73
2023/01/04 05:20:14;;;;;;;21.17;15.00;;;4.10;99.90;;;;;;2551052;23;20020;-73
2023/01/04 05:21:14;;;;;;;19.70;14.52;;;4.10;99.90;;;;;;2549081;23;20141;-73
2023/01/04 05:22:15;;;;;;;18.13;14.23;;;4.10;99.90;;;;;;2549304;23;20016;-73
2023/01/04 05:23:18;;;;;;;18.88;13.00;;;4.10;99.90;;;;;;2562335;23;20000;-72
2023/01/04 05:24:19;;;;;;;18.70;13.40;;;4.00;99.90;;;;;;2550970;23;20048;-73
2023/01/04 05:25:19;;;;;;;19.20;14.55;;;4.00;99.90;;;;;;2549283;23;20087;-73
2023/01/04 05:26:20;;;;;;;20.67;14.70;;;4.00;99.90;;;;;;2562250;23;20004;-73
2023/01/04 05:27:20;;;;;;;20.67;14.27;;;4.00;99.90;;;;;;2562418;23;20005;-73
2023/01/04 05:28:21;;;;;;;20.23;14.55;;;4.00;99.90;;;;;;2564266;23;20058;-73
2023/01/04 05:30:50;;;;;;;20.50;14.90;;;4.00;99.90;;;;;;2552784;23;20000;-73
2023/01/04 05:31:50;;;;;;;22.77;14.85;;;4.10;99.90;;;;;;2562326;23;20036;-72
2023/01/04 05:32:51;;;;;;;21.52;14.38;;;4.10;99.90;;;;;;2564805;23;20015;-72
2023/01/04 05:33:51;;;;;;;22.52;14.95;;;4.10;99.90;;;;;;2549577;23;20406;-72
2023/01/04 05:34:52;;;;;;;20.95;14.20;;;4.10;99.90;;;;;;2551274;23;20525;-73
2023/01/04 05:35:54;;;;;;;18.70;13.93;;;4.10;99.90;;;;;;2565102;23;20036;-72
2023/01/04 05:36:54;;;;;;;18.08;14.10;;;4.10;99.90;;;;;;2553718;23;20017;-73
2023/01/04 05:37:55;;;;;;;18.80;14.05;;;4.10;99.90;;;;;;2551293;23;20005;-72
2023/01/04 05:38:55;;;;;;;19.13;13.57;;;4.10;99.90;;;;;;2564964;23;20012;-72
2023/01/04 05:39:56;;;;;;;17.52;12.30;;;4.10;99.90;;;;;;2564750;23;20244;-74
2023/01/04 05:40:56;;;;;;;20.73;14.02;;;4.20;99.90;;;;;;2564469;23;20004;-72
2023/01/04 05:43:18;;;;;;;19.17;13.93;;;4.20;99.90;;;;;;2555108;23;20010;-82
2023/01/04 05:44:18;;;;;;;18.80;13.77;;;4.20;99.90;;;;;;2566363;23;20032;-82
2023/01/04 05:45:20;;;;;;;17.20;12.98;;;4.20;99.90;;;;;;2558483;23;20350;-81
2023/01/04 05:46:20;;;;;;;17.65;13.25;;;4.20;99.90;;;;;;2564449;23;20517;-82
2023/01/04 05:47:22;;;;;;;18.73;13.52;;;4.20;99.90;;;;;;2563892;23;20067;-80
2023/01/04 05:48:23;;;;;;;17.90;13.02;;;4.20;99.90;;;;;;2563630;23;20012;-81
2023/01/04 05:49:24;;;;;;;19.67;13.95;;;4.20;99.90;;;;;;2563558;23;20282;-79
2023/01/04 05:50:24;;;;;;;18.73;13.25;;;4.20;99.90;;;;;;2565449;23;20330;-80
2023/01/04 05:51:25;;;;;;;18.05;13.38;;;4.30;99.90;;;;;;2563619;23;20302;-80
2023/01/04 05:52:26;;;;;;;18.30;13.15;;;4.30;99.90;;;;;;2563961;23;20008;-79
2023/01/04 05:53:27;;;;;;;20.63;14.30;;;4.30;99.90;;;;;;2571373;23;19997;-80
2023/01/04 05:54:28;;;;;;;19.88;14.02;;;4.30;99.90;;;;;;2573190;23;20095;-80
2023/01/04 05:55:28;;;;;;;21.67;16.10;;;4.30;99.90;;;;;;2569952;23;20011;-79
2023/01/04 05:56:29;;;;;;;22.17;15.30;;;4.30;99.90;;;;;;2572009;23;19997;-81
2023/01/04 05:57:29;;;;;;;20.10;14.52;;;4.30;99.90;;;;;;2568535;23;20000;-80
2023/01/04 05:58:30;;;;;;;21.52;14.75;;;4.30;99.90;;;;;;2553306;23;20613;-81
2023/01/04 05:59:31;;;;;;;20.08;15.13;;;4.30;99.90;;;;;;2551434;23;20009;-82
2023/01/04 06:00:31;;;;;;;22.00;14.73;;;4.30;99.90;;;;;;2563723;23;20000;-82
2023/01/04 06:01:32;;;;;;;20.42;13.95;;;4.40;99.90;;;;;;2550623;23;20009;-80
2023/01/04 06:02:33;;;;;;;22.65;14.13;;;4.30;99.90;;;;;;2552450;23;20039;-82
2023/01/04 06:03:33;;;;;;;20.70;14.20;;;4.30;99.90;;;;;;2563858;23;20432;-81
2023/01/04 06:04:34;;;;;;;22.17;14.40;;;4.40;99.90;;;;;;2564057;23;20135;-82
2023/01/04 06:05:34;;;;;;;22.58;14.13;;;4.30;99.90;;;;;;2563667;23;20324;-80
2023/01/04 06:06:35;;;;;;;19.65;13.95;;;4.40;99.90;;;;;;2563548;23;20005;-81
2023/01/04 06:07:36;;;;;;;18.63;12.77;;;4.40;99.90;;;;;;2565320;23;20005;-80
2023/01/04 06:08:37;;;;;;;18.88;12.93;;;4.40;99.90;;;;;;2550417;23;20075;-80
2023/01/04 06:09:37;;;;;;;18.00;13.07;;;4.40;99.90;;;;;;2550252;23;20026;-80
2023/01/04 06:10:38;;;;;;;18.23;12.70;;;4.40;99.90;;;;;;2549998;23;20277;-80
2023/01/04 06:11:38;;;;;;;21.95;13.82;;;4.40;99.90;;;;;;2552379;23;20169;-78
2023/01/04 06:12:39;;;;;;;19.17;13.30;;;4.40;99.90;;;;;;2563805;23;20008;-81
2023/01/04 06:13:40;;;;;;;19.05;12.77;;;4.50;99.90;;;;;;2563775;23;20059;-81
2023/01/04 06:14:40;;;;;;;21.08;13.38;;;4.50;99.90;;;;;;2550421;23;20092;-80
2023/01/04 06:15:43;;;;;;;20.15;13.65;;;4.50;99.90;;;;;;2550449;23;20442;-80
2023/01/04 06:16:43;;;;;;;17.35;12.82;;;4.50;99.90;;;;;;2564447;23;20055;-80